createdAt,value
2023-04-02T00:01:37.622Z,98.55
2023-04-02T00:04:22.249Z,98.70
2023-04-02T00:06:55.489Z,98.76
2023-04-02T00:09:29.068Z,98.05
2023-04-02T00:11:56.727Z,97.76
2023-04-02T00:14:31.059Z,97.71
2023-04-02T00:17:01.526Z,98.79
2023-04-02T00:19:45.113Z,98.76
2023-04-02T00:22:18.367Z,97.68
2023-04-02T00:24:45.614Z,98.00
2023-04-02T00:27:14.464Z,98.19
2023-04-02T00:29:48.691Z,98.21
2023-04-02T00:32:31.427Z,98.63
2023-04-02T00:34:59.617Z,98.63
2023-04-02T00:37:30.262Z,97.67
2023-04-02T00:40:10.119Z,98.16
2023-04-02T00:42:40.456Z,97.93
2023-04-02T00:45:30.187Z,97.38
2023-04-02T00:48:13.636Z,98.00
2023-04-02T00:50:44.267Z,98.27
2023-04-02T00:53:22.681Z,98.77
2023-04-02T00:55:50.402Z,98.04
2023-04-02T00:58:36.862Z,98.38
2023-04-02T01:01:04.995Z,97.68
2023-04-02T01:03:37.135Z,98.35
2023-04-02T01:06:11.846Z,98.42
2023-04-02T01:08:44.433Z,98.36
2023-04-02T01:11:42.161Z,98.24
2023-04-02T01:14:45.581Z,97.68
2023-04-02T01:17:32.267Z,97.32
2023-04-02T01:20:22.678Z,97.71
2023-04-02T01:23:01.168Z,97.53
2023-04-02T01:28:48.895Z,99.67
2023-04-02T01:31:16.874Z,99.94
2023-04-02T01:33:44.381Z,99.87
2023-04-02T01:36:27.544Z,100.00
2023-04-02T01:39:21.329Z,100.00
2023-04-02T01:42:06.032Z,100.00
2023-04-02T01:44:41.870Z,100.00
2023-04-02T01:47:15.371Z,100.00
2023-04-02T01:49:43.591Z,100.00
2023-04-02T01:52:20.173Z,100.00
2023-04-02T01:54:54.959Z,100.00
2023-04-02T01:57:22.831Z,100.00
2023-04-02T01:59:49.879Z,100.00
2023-04-02T02:02:18.105Z,100.00
2023-04-02T02:04:44.978Z,100.00
2023-04-02T02:07:18.900Z,100.00
2023-04-02T02:12:15.374Z,100.00
2023-04-02T02:14:49.270Z,100.00
2023-04-02T02:17:19.008Z,100.00
2023-04-02T02:19:48.740Z,100.00
2023-04-02T02:22:24.661Z,100.00
2023-04-02T02:24:51.612Z,100.00
2023-04-02T02:27:24.256Z,100.00
2023-04-02T02:30:06.466Z,100.00
2023-04-02T02:32:34.933Z,100.00
2023-04-02T02:35:11.534Z,100.00
2023-04-02T02:37:43.715Z,100.00
2023-04-02T02:40:20.179Z,100.00
2023-04-02T02:42:47.851Z,100.00
2023-04-02T02:45:21.035Z,100.00
2023-04-02T02:47:48.772Z,100.00
2023-04-02T02:50:22.268Z,100.00
2023-04-02T02:52:55.571Z,100.00
2023-04-02T02:55:27.815Z,100.00
2023-04-02T02:58:04.845Z,100.00
2023-04-02T03:00:32.248Z,100.00
2023-04-02T03:02:59.436Z,100.00
2023-04-02T03:05:29.596Z,100.00
2023-04-02T03:07:58.513Z,100.00
2023-04-02T03:10:36.122Z,100.00
2023-04-02T03:13:16.260Z,100.00
2023-04-02T03:15:51.993Z,100.00
2023-04-02T03:18:36.701Z,100.00
2023-04-02T03:21:30.290Z,100.00
2023-04-02T03:24:03.684Z,100.00
2023-04-02T03:26:40.063Z,100.00
2023-04-02T03:29:14.768Z,100.00
2023-04-02T03:31:48.791Z,100.00
2023-04-02T03:34:28.329Z,100.00
2023-04-02T03:37:01.578Z,100.00
2023-04-02T03:39:48.695Z,100.00
2023-04-02T03:42:28.374Z,100.00
2023-04-02T03:45:01.382Z,100.00
2023-04-02T03:47:36.789Z,100.00
2023-04-02T03:50:08.307Z,100.00
2023-04-02T03:52:37.689Z,100.00
2023-04-02T03:55:22.296Z,100.00
2023-04-02T03:58:14.221Z,100.00
2023-04-02T04:00:48.740Z,100.00
2023-04-02T04:03:23.330Z,100.00
2023-04-02T04:05:52.902Z,100.00
2023-04-02T04:08:24.063Z,100.00
2023-04-02T04:10:58.417Z,100.00
2023-04-02T04:13:39.815Z,100.00
2023-04-02T04:16:12.444Z,100.00
2023-04-02T04:18:49.379Z,100.00
2023-04-02T04:21:31.453Z,100.00
2023-04-02T04:24:06.877Z,100.00
2023-04-02T04:26:49.866Z,100.00
2023-04-02T04:29:48.707Z,100.00
2023-04-02T04:32:32.268Z,100.00
2023-04-02T04:35:16.681Z,100.00
2023-04-02T04:40:39.040Z,100.00
2023-04-02T04:43:11.985Z,100.00
2023-04-02T04:45:48.867Z,100.00
2023-04-02T04:48:23.355Z,100.00
2023-04-02T04:51:15.611Z,100.00
2023-04-02T04:53:49.034Z,100.00
2023-04-02T04:56:19.965Z,100.00
2023-04-02T04:58:48.792Z,100.00
2023-04-02T05:01:36.799Z,100.00
2023-04-02T05:04:13.648Z,100.00
2023-04-02T05:06:48.797Z,100.00
2023-04-02T05:09:28.362Z,100.00
2023-04-02T05:12:07.393Z,100.00
2023-04-02T05:14:42.664Z,100.00
2023-04-02T05:17:17.969Z,100.00
2023-04-02T05:19:48.862Z,100.00
2023-04-02T05:22:27.911Z,100.00
2023-04-02T05:25:24.963Z,100.00
2023-04-02T05:28:13.630Z,100.00
2023-04-02T05:30:48.751Z,100.00
2023-04-02T05:33:27.588Z,100.00
2023-04-02T05:36:03.760Z,100.00
2023-04-02T05:38:35.669Z,100.00
2023-04-02T05:41:04.712Z,100.00
2023-04-02T05:43:34.525Z,100.00
2023-04-02T05:46:08.455Z,100.00
2023-04-02T05:48:40.640Z,100.00
2023-04-02T05:51:16.199Z,100.00
2023-04-02T05:53:48.876Z,100.00
2023-04-02T05:56:33.848Z,100.00
2023-04-02T05:59:28.455Z,100.00
2023-04-02T06:02:23.007Z,100.00
2023-04-02T06:04:53.710Z,100.00
2023-04-02T06:07:24.662Z,100.00
2023-04-02T06:10:17.707Z,100.00
2023-04-02T06:12:48.851Z,100.00
2023-04-02T06:15:20.096Z,100.00
2023-04-02T06:17:48.870Z,100.00
2023-04-02T06:20:18.618Z,100.00
2023-04-02T06:22:49.321Z,100.00
2023-04-02T06:25:31.505Z,100.00
2023-04-02T06:28:02.391Z,100.00
2023-04-02T06:30:34.042Z,100.00
2023-04-02T06:33:01.240Z,100.00
2023-04-02T06:35:28.220Z,100.00
2023-04-02T06:37:57.749Z,100.00
2023-04-02T06:40:34.416Z,100.00
2023-04-02T06:43:06.686Z,100.00
2023-04-02T06:45:41.607Z,100.00
2023-04-02T06:48:16.964Z,100.00
2023-04-02T06:50:47.839Z,100.00
2023-04-02T06:53:26.953Z,100.00
2023-04-02T06:56:19.089Z,100.00
2023-04-02T06:58:46.151Z,100.00
2023-04-02T07:01:19.924Z,100.00
2023-04-02T07:06:19.436Z,100.00
2023-04-02T07:11:20.888Z,100.00
2023-04-02T07:13:48.897Z,100.00
2023-04-02T07:16:22.019Z,100.00
2023-04-02T07:18:49.671Z,100.00
2023-04-02T07:21:16.568Z,100.00
2023-04-02T07:23:44.184Z,100.00
2023-04-02T07:26:16.730Z,100.00
2023-04-02T07:28:44.205Z,100.00
2023-04-02T07:31:38.540Z,100.00
2023-04-02T07:34:07.195Z,100.00
2023-04-02T07:36:37.226Z,100.00
2023-04-02T07:39:04.681Z,100.00
2023-04-02T07:41:31.737Z,100.00
2023-04-02T07:43:58.526Z,100.00
2023-04-02T07:46:26.279Z,100.00
2023-04-02T07:48:53.344Z,100.00
2023-04-02T07:51:26.889Z,100.00
2023-04-02T07:53:56.424Z,100.00
2023-04-02T07:56:27.595Z,100.00
2023-04-02T07:58:55.011Z,100.00
2023-04-02T08:01:25.898Z,100.00
2023-04-02T08:03:56.998Z,100.00
2023-04-02T08:06:25.625Z,100.00
2023-04-02T08:08:52.697Z,100.00
2023-04-02T08:11:20.018Z,100.00
2023-04-02T08:16:13.238Z,99.91
2023-04-02T08:18:40.849Z,99.84
2023-04-02T08:21:09.803Z,99.79
2023-04-02T08:23:38.516Z,99.45
2023-04-02T08:26:07.295Z,100.00
2023-04-02T08:28:34.689Z,100.00
2023-04-02T08:31:02.447Z,100.00
2023-04-02T08:33:29.273Z,100.00
2023-04-02T08:35:56.498Z,100.00
2023-04-02T08:38:32.051Z,100.00
2023-04-02T08:41:01.678Z,99.39
2023-04-02T08:46:20.028Z,97.91
2023-04-02T08:48:48.960Z,97.28
2023-04-02T08:51:27.781Z,96.86
2023-04-02T08:54:24.628Z,96.66
2023-04-02T08:57:06.830Z,100.00
2023-04-02T08:59:40.677Z,94.97
2023-04-02T09:02:30.588Z,94.38
2023-04-02T09:05:02.467Z,94.46
2023-04-02T09:07:29.631Z,93.07
2023-04-02T09:09:58.379Z,93.14
2023-04-02T09:12:32.096Z,92.82
2023-04-02T09:15:11.930Z,91.23
2023-04-02T09:17:50.566Z,91.77
2023-04-02T09:20:17.589Z,90.52
2023-04-02T09:22:49.194Z,90.48
2023-04-02T09:25:23.942Z,89.22
2023-04-02T09:27:57.080Z,89.09
2023-04-02T09:30:30.089Z,87.87
2023-04-02T09:33:02.251Z,87.33
2023-04-02T09:35:33.074Z,87.79
2023-04-02T09:38:19.834Z,86.66
2023-04-02T09:40:49.256Z,86.88
2023-04-02T09:43:19.589Z,87.32
2023-04-02T09:45:48.984Z,87.20
2023-04-02T09:48:24.918Z,87.72
2023-04-02T09:51:05.288Z,88.06
2023-04-02T09:53:36.479Z,87.78
2023-04-02T09:56:15.539Z,86.77
2023-04-02T09:58:44.917Z,86.47
2023-04-02T10:01:31.611Z,87.08
2023-04-02T10:04:00.014Z,87.26
2023-04-02T10:06:29.474Z,88.15
2023-04-02T10:08:57.444Z,87.46
2023-04-02T10:11:43.645Z,86.41
2023-04-02T10:14:24.519Z,86.71
2023-04-02T10:16:56.628Z,86.47
2023-04-02T10:19:29.102Z,86.96
2023-04-02T10:22:06.535Z,85.83
2023-04-02T10:24:38.436Z,84.70
2023-04-02T10:27:22.916Z,83.99
2023-04-02T10:30:17.641Z,84.07
2023-04-02T10:35:32.617Z,83.78
2023-04-02T10:38:31.918Z,84.87
2023-04-02T10:41:04.836Z,85.14
2023-04-02T10:43:39.725Z,84.94
2023-04-02T10:46:10.906Z,84.91
2023-04-02T10:48:48.906Z,86.33
2023-04-02T10:51:39.206Z,85.78
2023-04-02T10:54:44.214Z,85.81
2023-04-02T10:57:17.045Z,85.97
2023-04-02T10:59:48.935Z,87.38
2023-04-02T11:02:36.928Z,87.69
2023-04-02T11:05:14.325Z,88.26
2023-04-02T11:10:20.112Z,89.91
2023-04-02T11:12:47.983Z,90.28
2023-04-02T11:15:23.329Z,91.71
2023-04-02T11:17:50.909Z,90.82
2023-04-02T11:20:44.556Z,89.68
2023-04-02T11:23:18.399Z,90.17
2023-04-02T11:28:29.358Z,90.90
2023-04-02T11:30:57.884Z,89.96
2023-04-02T11:33:46.085Z,90.70
2023-04-02T11:36:51.798Z,88.12
2023-04-02T11:39:50.116Z,88.73
2023-04-02T11:42:23.724Z,88.14
2023-04-02T11:44:56.604Z,86.39
2023-04-02T11:47:25.499Z,87.58
2023-04-02T11:49:59.477Z,85.92
2023-04-02T11:52:31.248Z,85.87
2023-04-02T11:55:24.563Z,83.96
2023-04-02T11:58:23.388Z,84.94
2023-04-02T12:01:11.149Z,84.42
2023-04-02T12:03:50.130Z,87.05
2023-04-02T12:06:37.318Z,85.59
2023-04-02T12:09:25.079Z,87.52
2023-04-02T12:11:56.313Z,89.00
2023-04-02T12:14:47.999Z,89.98
2023-04-02T12:17:33.481Z,89.64
2023-04-02T12:20:05.053Z,90.37
2023-04-02T12:22:34.423Z,88.93
2023-04-02T12:25:21.641Z,89.46
2023-04-02T12:27:54.756Z,88.69
2023-04-02T12:30:25.176Z,88.62
2023-04-02T12:32:55.085Z,86.68
2023-04-02T12:35:36.832Z,89.20
2023-04-02T12:38:03.687Z,88.09
2023-04-02T12:40:30.930Z,87.38
2023-04-02T12:42:57.870Z,88.35
2023-04-02T12:45:33.800Z,88.26
2023-04-02T12:48:07.261Z,86.90
2023-04-02T12:50:34.797Z,87.10
2023-04-02T12:53:15.378Z,86.57
2023-04-02T12:55:49.280Z,86.97
2023-04-02T12:58:27.017Z,85.83
2023-04-02T13:01:11.782Z,85.95
2023-04-02T13:03:38.620Z,85.25
2023-04-02T13:06:24.991Z,85.65
2023-04-02T13:08:53.670Z,86.27
2023-04-02T13:11:22.874Z,86.50
2023-04-02T13:14:08.577Z,84.52
2023-04-02T13:16:38.550Z,85.90
2023-04-02T13:19:17.242Z,85.49
2023-04-02T13:21:46.544Z,85.61
2023-04-02T13:24:20.914Z,84.98
2023-04-02T13:26:48.996Z,84.36
2023-04-02T13:29:24.748Z,83.94
2023-04-02T13:31:54.270Z,83.82
2023-04-02T13:34:21.224Z,84.11
2023-04-02T13:36:49.079Z,83.18
2023-04-02T13:39:16.365Z,82.86
2023-04-02T13:41:48.263Z,82.08
2023-04-02T13:44:32.830Z,82.82
2023-04-02T13:47:00.923Z,83.01
2023-04-02T13:49:28.416Z,83.01
2023-04-02T13:52:03.673Z,83.46
2023-04-02T13:54:44.179Z,83.53
2023-04-02T13:57:11.948Z,83.17
2023-04-02T13:59:38.868Z,83.60
2023-04-02T14:02:14.393Z,83.47
2023-04-02T14:04:46.344Z,83.31
2023-04-02T14:07:32.194Z,84.05
2023-04-02T14:10:36.776Z,83.91
2023-04-02T14:13:11.712Z,83.35
2023-04-02T14:15:49.055Z,82.79
2023-04-02T14:18:44.568Z,82.36
2023-04-02T14:21:26.631Z,82.71
2023-04-02T14:24:08.168Z,82.38
2023-04-02T14:26:49.018Z,82.56
2023-04-02T14:29:26.373Z,81.87
2023-04-02T14:32:13.142Z,81.38
2023-04-02T14:34:49.562Z,81.57
2023-04-02T14:37:23.862Z,81.55
2023-04-02T14:40:15.088Z,80.92
2023-04-02T14:45:36.878Z,81.05
2023-04-02T14:48:29.470Z,79.91
2023-04-02T14:51:05.366Z,79.92
2023-04-02T14:53:50.558Z,79.33
2023-04-02T14:56:19.894Z,78.76
2023-04-02T14:58:49.464Z,78.22
2023-04-02T15:01:35.625Z,77.58
2023-04-02T15:04:09.145Z,76.39
2023-04-02T15:06:41.954Z,76.16
2023-04-02T15:09:22.092Z,76.01
2023-04-02T15:11:53.197Z,75.78
2023-04-02T15:14:28.909Z,75.39
2023-04-02T15:16:55.838Z,76.10
2023-04-02T15:19:22.670Z,74.42
2023-04-02T15:22:43.912Z,74.63
2023-04-02T15:25:34.526Z,75.14
2023-04-02T15:28:17.115Z,74.95
2023-04-02T15:30:45.466Z,74.00
2023-04-02T15:33:38.728Z,74.00
2023-04-02T15:36:31.744Z,73.49
2023-04-02T15:39:28.389Z,73.58
2023-04-02T15:42:28.166Z,72.52
2023-04-02T15:45:13.047Z,71.79
2023-04-02T15:47:48.205Z,71.76
2023-04-02T15:50:49.748Z,72.14
2023-04-02T15:53:44.004Z,71.10
2023-04-02T15:56:34.756Z,71.17
2023-04-02T15:59:32.583Z,70.96
2023-04-02T16:02:17.730Z,70.72
2023-04-02T16:07:32.773Z,70.18
2023-04-02T16:10:19.202Z,69.70
2023-04-02T16:12:53.046Z,70.66
2023-04-02T16:15:30.575Z,70.65
2023-04-02T16:18:13.786Z,70.86
2023-04-02T16:20:58.237Z,71.22
2023-04-02T16:23:39.051Z,71.80
2023-04-02T16:26:31.538Z,72.08
2023-04-02T16:29:19.907Z,72.30
2023-04-02T16:34:31.968Z,71.60
2023-04-02T16:37:07.583Z,72.19
2023-04-02T16:39:49.070Z,71.52
2023-04-02T16:42:49.147Z,72.20
2023-04-02T16:45:19.359Z,72.21
2023-04-02T16:47:58.581Z,72.69
2023-04-02T16:53:58.704Z,72.34
2023-04-02T16:56:28.269Z,71.60
2023-04-02T16:59:11.961Z,69.77
2023-04-02T17:01:49.406Z,68.11
2023-04-02T17:07:20.221Z,68.96
2023-04-02T17:12:24.530Z,70.12
2023-04-02T17:14:57.857Z,69.82
2023-04-02T17:17:26.910Z,70.30
2023-04-02T17:19:59.739Z,69.77
2023-04-02T17:22:26.954Z,70.16
2023-04-02T17:24:59.021Z,70.06
2023-04-02T17:27:32.255Z,69.37
2023-04-02T17:30:31.756Z,68.96
2023-04-02T17:32:58.795Z,69.25
2023-04-02T17:35:48.283Z,68.96
2023-04-02T17:38:32.629Z,69.06
2023-04-02T17:41:02.356Z,69.18
2023-04-02T17:43:46.599Z,69.09
2023-04-02T17:46:28.184Z,69.38
2023-04-02T17:49:12.334Z,69.96
2023-04-02T17:54:39.299Z,70.04
2023-04-02T17:57:21.241Z,70.41
2023-04-02T17:59:49.379Z,70.43
2023-04-02T18:02:34.748Z,69.23
2023-04-02T18:05:32.705Z,69.62
2023-04-02T18:08:14.712Z,70.41
2023-04-02T18:10:49.714Z,70.87
2023-04-02T18:13:38.258Z,70.12
2023-04-02T18:16:28.446Z,70.81
2023-04-02T18:19:19.423Z,71.84
2023-04-02T18:24:33.181Z,71.84
2023-04-02T18:27:18.050Z,71.73
2023-04-02T18:29:49.491Z,71.17
2023-04-02T18:32:41.549Z,70.72
2023-04-02T18:35:33.025Z,69.27
2023-04-02T18:38:41.800Z,68.52
2023-04-02T18:41:37.271Z,69.23
2023-04-02T18:44:10.120Z,69.19
2023-04-02T18:46:48.258Z,69.43
2023-04-02T18:49:37.351Z,69.78
2023-04-02T18:52:14.580Z,70.81
2023-04-02T18:57:27.627Z,70.96
2023-04-02T19:00:05.918Z,71.98
2023-04-02T19:05:27.619Z,71.93
2023-04-02T19:08:09.003Z,71.02
2023-04-02T19:10:39.559Z,70.30
2023-04-02T19:13:20.821Z,70.09
2023-04-02T19:15:49.738Z,70.34
2023-04-02T19:18:27.364Z,70.73
2023-04-02T19:20:59.177Z,69.50
2023-04-02T19:26:25.638Z,70.43
2023-04-02T19:29:05.571Z,70.59
2023-04-02T19:31:49.622Z,69.41
2023-04-02T19:34:45.823Z,70.11
2023-04-02T19:37:38.666Z,70.29
2023-04-02T19:40:51.832Z,70.35
2023-04-02T19:43:20.714Z,70.69
2023-04-02T19:45:49.191Z,70.47
2023-04-02T19:48:20.798Z,70.23
2023-04-02T19:50:48.327Z,68.88
2023-04-02T19:53:15.609Z,68.08
2023-04-02T19:55:43.227Z,68.24
2023-04-02T19:58:24.982Z,69.13
2023-04-02T20:00:52.258Z,67.62
2023-04-02T20:03:19.395Z,67.19
2023-04-02T20:05:46.546Z,66.44
2023-04-02T20:08:17.215Z,66.41
2023-04-02T20:10:44.772Z,66.36
2023-04-02T20:13:12.075Z,65.74
2023-04-02T20:15:43.276Z,65.90
2023-04-02T20:18:11.283Z,66.23
2023-04-02T20:20:39.538Z,66.42
2023-04-02T20:23:07.579Z,66.30
2023-04-02T20:25:34.855Z,66.76
2023-04-02T20:28:04.374Z,66.79
2023-04-02T20:30:32.938Z,65.84
2023-04-02T20:33:01.459Z,65.59
2023-04-02T20:35:31.536Z,65.95
2023-04-02T20:37:58.452Z,65.87
2023-04-02T20:40:26.071Z,65.83
2023-04-02T20:42:53.843Z,66.12
2023-04-02T20:45:21.146Z,66.32
2023-04-02T20:50:14.583Z,66.50
2023-04-02T20:52:42.138Z,67.08
2023-04-02T20:55:12.993Z,67.08
2023-04-02T20:57:40.386Z,67.74
2023-04-02T21:00:11.650Z,67.14
2023-04-02T21:02:38.507Z,67.88
2023-04-02T21:05:05.660Z,67.70
2023-04-02T21:07:32.705Z,67.07
2023-04-02T21:09:59.690Z,66.87
2023-04-02T21:12:26.661Z,66.91
2023-04-02T21:14:59.221Z,67.56
2023-04-02T21:17:28.135Z,68.34
2023-04-02T21:19:55.159Z,68.68
2023-04-02T21:22:23.049Z,69.38
2023-04-02T21:24:50.418Z,69.51
2023-04-02T21:27:17.788Z,69.96
2023-04-02T21:29:49.829Z,71.31
2023-04-02T21:32:21.601Z,70.82
2023-04-02T21:34:49.096Z,71.75
2023-04-02T21:37:16.261Z,71.61
2023-04-02T21:39:43.439Z,71.97
2023-04-02T21:42:12.241Z,72.43
2023-04-02T21:44:39.991Z,73.39
2023-04-02T21:47:07.217Z,73.13
2023-04-02T21:49:37.155Z,72.96
2023-04-02T21:52:09.191Z,73.55
2023-04-02T21:54:45.741Z,73.48
2023-04-02T21:57:12.694Z,73.74
2023-04-02T21:59:39.869Z,74.44
2023-04-02T22:02:10.109Z,75.93
2023-04-02T22:04:37.819Z,75.22
2023-04-02T22:07:09.071Z,75.89
2023-04-02T22:09:35.824Z,75.88
2023-04-02T22:12:02.692Z,77.24
2023-04-02T22:14:30.143Z,77.09
2023-04-02T22:16:59.111Z,77.31
2023-04-02T22:19:26.920Z,76.79
2023-04-02T22:21:53.840Z,76.84
2023-04-02T22:24:25.568Z,76.19
2023-04-02T22:26:53.387Z,77.24
2023-04-02T22:29:20.606Z,77.59
2023-04-02T22:34:14.828Z,77.38
2023-04-02T22:36:41.963Z,76.91
2023-04-02T22:39:12.971Z,76.87
2023-04-02T22:41:40.650Z,76.39
2023-04-02T22:44:11.521Z,77.33
2023-04-02T22:46:39.183Z,76.33
2023-04-02T22:49:06.226Z,77.58
2023-04-02T22:51:33.226Z,76.54
2023-04-02T22:54:00.516Z,77.18
2023-04-02T22:56:32.346Z,76.59
2023-04-02T22:58:59.631Z,76.78
2023-04-02T23:01:33.543Z,77.14
2023-04-02T23:04:00.994Z,78.92
2023-04-02T23:06:28.535Z,77.59
2023-04-02T23:08:55.603Z,78.83
2023-04-02T23:11:27.746Z,78.57
2023-04-02T23:13:57.124Z,78.65
2023-04-02T23:16:27.304Z,79.42
2023-04-02T23:18:55.712Z,80.24
2023-04-02T23:21:24.210Z,81.02
2023-04-02T23:23:51.658Z,81.26
2023-04-02T23:26:32.059Z,82.19
2023-04-02T23:29:02.401Z,81.89
2023-04-02T23:31:31.620Z,82.81
2023-04-02T23:34:01.582Z,82.31
2023-04-02T23:36:29.693Z,82.92
2023-04-02T23:39:01.798Z,83.30
2023-04-02T23:41:30.294Z,82.23
2023-04-02T23:43:58.371Z,82.16
2023-04-02T23:46:26.203Z,81.17
2023-04-02T23:48:54.411Z,80.96
2023-04-02T23:51:21.974Z,82.58
2023-04-02T23:53:49.760Z,83.17
2023-04-02T23:56:16.882Z,82.62
2023-04-02T23:58:50.434Z,80.58
